Time;durP1;ratioP1;P1;durP2;ratioP2;P2;SDS_P1;SDS_P2;PMS_P1;PMS_P2;Temp;Humidity;BMP_temperature;BMP_pressure;BME280_temperature;BME280_humidity;BME280_pressure;Samples;Min_cycle;Max_cycle;Signal;HPM_P1;HPM_P2
2022/12/24 11:34:25;;;;;;;;;;;;;;;9.17;100.00;99589.91;5836171;22;9913941;-78
2022/12/24 11:36:53;;;;;;;;;;;;;;;8.98;100.00;99591.94;6287358;22;823;-77
2022/12/24 11:39:21;;;;;;;;;;;;;;;8.93;100.00;99603.34;6286344;22;1255;-76
2022/12/24 11:41:52;;;;;;;;;;;;;;;8.77;100.00;99601.03;6286565;22;839;-77
2022/12/24 11:44:28;;;;;;;;;;;;;;;8.81;100.00;99591.97;6285000;22;1239;-76
2022/12/24 11:46:57;;;;;;;;;;;;;;;8.98;100.00;99605.72;6284223;22;845;-78
2022/12/24 11:49:24;;;;;;;;;;;;;;;9.18;100.00;99599.78;6285569;22;1897;-76
2022/12/24 11:52:02;;;;;;;;;;;;;;;9.50;100.00;99596.91;6285611;22;1042;-77
2022/12/24 11:54:39;;;;;;;;;;;;;;;9.82;100.00;99596.75;6285979;22;1041;-78
2022/12/24 11:57:12;;;;;;;;;;;;;;;10.10;100.00;99602.53;6287031;22;822;-77
2022/12/24 12:00:12;;;;;;;;;;;;;;;;;;;;;
2022/12/24 12:02:41;;;;;;;;;;;;;;;10.55;100.00;99594.34;6286634;22;653;-77
2022/12/24 12:05:12;;;;;;;;;;;;;;;10.61;100.00;99592.72;6286577;22;798;-77
2022/12/24 12:08:05;;;;;;;;;;;;;;;10.58;100.00;99593.53;6286259;22;865;-78
2022/12/24 12:10:39;;;;;;;;;;;;;;;10.82;100.00;99587.00;6284197;22;1916;-78
2022/12/24 12:27:36;;;;;;;;;;;;;;;11.72;100.00;99582.44;6277610;22;1518;-77
2022/12/24 12:30:13;;;;;;;;;;;;;;;11.78;100.00;99581.56;6283931;22;1910;-76
2022/12/24 12:33:06;;;;;;;;;;;;;;;;;;;;;
2022/12/24 12:35:38;;;;;;;;;;;;;;;12.07;100.00;99574.88;6277438;22;1330;-76
2022/12/24 12:38:07;;;;;;;;;;;;;;;12.08;100.00;99577.22;6275844;22;1235;-77
2022/12/24 12:40:58;;;;;;;;;;;;;;;12.30;100.00;99571.38;6278543;22;797;-76
2022/12/24 12:43:34;;;;;;;;;;;;;;;12.15;100.00;99568.81;6275984;22;752;-76
2022/12/24 12:46:20;;;;;;;;;;;;;;;12.00;100.00;99562.69;6275509;22;1119;-77
2022/12/24 12:48:47;;;;;;;;;;;;;;;11.99;100.00;99574.19;6274928;22;1884;-74
2022/12/24 12:51:35;;;;;;;;;;;;;;;12.22;100.00;99573.44;6276842;22;814;-75
2022/12/24 12:54:05;;;;;;;;;;;;;;;12.40;100.00;99570.41;6275048;22;1213;-75
2022/12/24 12:56:38;;;;;;;;;;;;;;;12.30;100.00;99568.59;6275517;22;1041;-76
2022/12/24 12:59:11;;;;;;;;;;;;;;;12.14;100.00;99567.25;6276838;22;842;-76
2022/12/24 13:01:56;;;;;;;;;;;;;;;11.79;100.00;99577.59;6276724;22;838;-75
2022/12/24 13:04:55;;;;;;;;;;;;;;;11.91;100.00;99573.50;6276848;22;843;-76
2022/12/24 13:07:36;;;;;;;;;;;;;;;11.91;100.00;99572.75;6153610;23;1566;-76
2022/12/24 13:10:11;;;;;;;;;;;;;;;11.97;100.00;99569.09;6153211;23;1904;-76
2022/12/24 13:12:49;;;;;;;;;;;;;;;12.03;100.00;99570.19;6153634;23;764;-76
2022/12/24 13:15:19;;;;;;;;;;;;;;;11.45;100.00;99567.34;6153072;23;879;-74
2022/12/24 13:17:55;;;;;;;;;;;;;;;11.01;100.00;99569.03;6152842;23;1070;-74
2022/12/24 13:20:32;;;;;;;;;;;;;;;10.37;100.00;99569.59;6152948;23;1057;-75
2022/12/24 13:22:59;;;;;;;;;;;;;;;9.94;100.00;99570.69;6127774;23;1114;-74
2022/12/24 13:25:30;;;;;;;;;;;;;;;9.65;100.00;99577.53;6153230;23;807;-74
2022/12/24 13:28:15;;;;;;;;;;;;;;;9.42;100.00;99587.09;6153176;23;1228;-76
2022/12/24 13:30:41;;;;;;;;;;;;;;;9.25;100.00;99583.19;6152785;23;1887;-77
2022/12/24 13:33:12;;;;;;;;;;;;;;;9.16;100.00;99578.09;6152809;23;836;-76
2022/12/24 13:35:58;;;;;;;;;;;;;;;9.12;100.00;99585.59;6152404;23;957;-77
2022/12/24 13:38:30;;;;;;;;;;;;;;;9.08;100.00;99576.56;6128508;23;1058;-74
2022/12/24 13:41:16;;;;;;;;;;;;;;;9.07;100.00;99575.00;6152945;23;819;-75
2022/12/24 13:44:12;;;;;;;;;;;;;;;9.04;100.00;99578.53;6248963;22;1089;-76
2022/12/24 13:46:48;;;;;;;;;;;;;;;9.02;100.00;99580.13;6272887;22;1155;-75
2022/12/24 13:49:19;;;;;;;;;;;;;;;9.02;100.00;99569.88;6276342;22;1904;-76
2022/12/24 13:51:46;;;;;;;;;;;;;;;9.03;100.00;99573.44;6276534;22;786;-75
2022/12/24 13:54:13;;;;;;;;;;;;;;;9.00;100.00;99569.47;6276298;22;747;-76
2022/12/24 13:56:43;;;;;;;;;;;;;;;9.01;100.00;99562.78;6274556;22;1306;-75
2022/12/24 13:59:25;;;;;;;;;;;;;;;9.01;100.00;99562.78;6274581;22;1320;-75
2022/12/24 14:01:51;;;;;;;;;;;;;;;9.03;100.00;99571.47;6274170;22;1065;-75
2022/12/24 14:04:23;;;;;;;;;;;;;;;9.08;100.00;99567.50;6276067;22;782;-76
2022/12/24 14:06:52;;;;;;;;;;;;;;;9.15;100.00;99571.03;6274741;22;1204;-76
2022/12/24 14:09:21;;;;;;;;;;;;;;;9.17;100.00;99576.94;6276271;22;1861;-78
2022/12/24 14:11:56;;;;;;;;;;;;;;;9.09;100.00;99578.13;6274006;22;1076;-76
2022/12/24 14:14:27;;;;;;;;;;;;;;;8.97;100.00;99573.81;6274933;22;834;-76
2022/12/24 14:16:57;;;;;;;;;;;;;;;8.84;100.00;99577.41;6275162;22;783;-75
2022/12/24 14:19:27;;;;;;;;;;;;;;;8.71;100.00;99582.53;6276058;22;818;-76
2022/12/24 14:22:13;;;;;;;;;;;;;;;8.61;100.00;99577.81;6274464;22;1100;-77
2022/12/24 14:24:45;;;;;;;;;;;;;;;8.52;100.00;99589.22;6275427;22;834;-76
2022/12/24 14:27:28;;;;;;;;;;;;;;;8.44;100.00;99588.44;6273874;22;1581;-76
2022/12/24 14:30:00;;;;;;;;;;;;;;;8.38;100.00;99596.28;6273690;22;1897;-74
2022/12/24 14:32:44;;;;;;;;;;;;;;;8.34;100.00;99595.50;6275070;22;865;-74
2022/12/24 14:35:15;;;;;;;;;;;;;;;8.29;100.00;99593.13;6275324;22;799;-74
2022/12/24 14:37:43;;;;;;;;;;;;;;;8.26;100.00;99587.63;6273665;22;1308;-75
2022/12/24 14:40:17;;;;;;;;;;;;;;;8.25;100.00;99589.56;6275163;22;802;-75
2022/12/24 14:43:03;;;;;;;;;;;;;;;8.26;100.00;99585.66;6273382;22;847;-75
2022/12/24 14:45:30;;;;;;;;;;;;;;;8.25;100.00;99584.06;6274854;22;882;-74
2022/12/24 14:47:59;;;;;;;;;;;;;;;8.25;100.00;99588.78;6273272;22;832;-74
2022/12/24 14:50:37;;;;;;;;;;;;;;;8.23;100.00;99585.63;6274745;22;1869;-76
2022/12/24 14:53:13;;;;;;;;;;;;;;;8.25;100.00;99589.56;6275180;22;834;-75
2022/12/24 14:55:42;;;;;;;;;;;;;;;8.24;100.00;99590.75;6275334;22;839;-75
2022/12/24 14:58:20;;;;;;;;;;;;;;;8.24;100.00;99599.03;6275012;22;846;-75
2022/12/24 15:00:47;;;;;;;;;;;;;;;8.25;100.00;99597.03;6274832;22;830;-74
2022/12/24 15:15:34;;;;;;;;;;;;;;;8.14;100.00;99591.53;6277296;22;593;-75
2022/12/24 15:18:02;;;;;;;;;;;;;;;8.13;100.00;99590.75;6275239;22;803;-74
2022/12/24 15:20:29;;;;;;;;;;;;;;;8.13;100.00;99596.25;6274843;22;838;-74
2022/12/24 15:22:57;;;;;;;;;;;;;;;8.12;100.00;99589.16;6275060;22;837;-73
2022/12/24 15:25:28;;;;;;;;;;;;;;;8.13;100.00;99592.72;6274875;22;838;-75
2022/12/24 15:27:55;;;;;;;;;;;;;;;8.14;100.00;99591.53;6275254;22;1191;-76
2022/12/24 15:30:23;;;;;;;;;;;;;;;8.19;100.00;99596.63;6274912;22;1947;-76
2022/12/24 15:32:51;;;;;;;;;;;;;;;8.17;100.00;99599.81;6275327;22;854;-76
2022/12/24 15:35:54;;;;;;;;;;;;;;;8.17;100.00;99599.00;6273480;22;885;-75
2022/12/24 15:38:50;;;;;;;;;;;;;;;8.17;100.00;99601.75;6151225;23;1244;-74
2022/12/24 15:41:16;;;;;;;;;;;;;;;8.15;100.00;99609.59;6149983;23;1276;-74
2022/12/24 15:43:44;;;;;;;;;;;;;;;8.13;100.00;99604.50;6151447;23;855;-75
2022/12/24 15:46:21;;;;;;;;;;;;;;;8.14;100.00;99619.84;6151350;23;903;-74
2022/12/24 15:48:48;;;;;;;;;;;;;;;8.15;100.00;99610.41;6151381;23;960;-72
2022/12/24 15:51:21;;;;;;;;;;;;;;;8.16;100.00;99613.94;6126581;23;1920;-75
2022/12/24 15:53:48;;;;;;;;;;;;;;;8.21;100.00;99610.03;6151345;23;1022;-73
2022/12/24 15:56:30;;;;;;;;;;;;;;;8.21;100.00;99605.28;6126521;23;1330;-75
2022/12/24 15:59:16;;;;;;;;;;;;;;;8.08;100.00;99610.38;6151506;23;941;-75
2022/12/24 16:01:43;;;;;;;;;;;;;;;7.92;100.00;99610.75;6151290;23;834;-73
2022/12/24 16:04:12;;;;;;;;;;;;;;;7.81;100.00;99614.63;6151379;23;854;-75
2022/12/24 16:07:00;;;;;;;;;;;;;;;7.73;100.00;99606.38;6151939;23;917;-74
2022/12/24 16:09:31;;;;;;;;;;;;;;;7.69;100.00;99607.53;6152917;23;1872;-75
2022/12/24 16:11:58;;;;;;;;;;;;;;;7.71;100.00;99603.22;6198569;22;906;-71
2022/12/24 16:14:25;;;;;;;;;;;;;;;7.79;100.00;99615.03;6276315;22;814;-73
2022/12/24 16:16:57;;;;;;;;;;;;;;;7.89;100.00;99616.22;6276406;22;861;-74
2022/12/24 16:19:24;;;;;;;;;;;;;;;7.96;100.00;99622.56;6276451;22;798;-73
2022/12/24 16:21:53;;;;;;;;;;;;;;;8.01;100.00;99623.34;6276907;22;767;-73
2022/12/24 16:24:23;;;;;;;;;;;;;;;8.05;100.00;99621.41;6276270;22;915;-72
2022/12/24 16:26:50;;;;;;;;;;;;;;;8.06;100.00;99625.72;6276623;22;1207;-72
2022/12/24 16:29:18;;;;;;;;;;;;;;;8.07;100.00;99628.09;6276685;22;1935;-71
2022/12/24 16:31:51;;;;;;;;;;;;;;;8.12;100.00;99626.91;6276600;22;834;-72
2022/12/24 16:34:19;;;;;;;;;;;;;;;8.13;100.00;99628.50;6276211;22;850;-71
2022/12/24 16:36:46;;;;;;;;;;;;;;;7.89;100.00;99633.53;6276067;22;814;-71
2022/12/24 16:39:22;;;;;;;;;;;;;;;7.62;100.00;99626.75;6276315;22;834;-71
2022/12/24 16:44:35;;;;;;;;;;;;;;;7.31;100.00;99632.50;6275917;22;628;-70
2022/12/24 16:47:02;;;;;;;;;;;;;;;7.20;100.00;99634.41;6275890;22;787;-69
2022/12/24 16:49:29;;;;;;;;;;;;;;;7.12;100.00;99624.53;6275668;22;1884;-70
2022/12/24 16:51:56;;;;;;;;;;;;;;;7.05;100.00;99630.00;6275778;22;818;-69
2022/12/24 16:54:22;;;;;;;;;;;;;;;7.01;100.00;99629.19;6275719;22;822;-67
2022/12/24 16:56:49;;;;;;;;;;;;;;;6.93;100.00;99633.81;6275820;22;822;-67
2022/12/24 16:59:17;;;;;;;;;;;;;;;6.85;100.00;99640.44;6276099;22;842;-67
2022/12/24 17:01:44;;;;;;;;;;;;;;;6.79;100.00;99626.28;6275759;22;882;-67
2022/12/24 17:04:11;;;;;;;;;;;;;;;6.74;100.00;99626.63;6275677;22;806;-68
2022/12/24 17:06:37;;;;;;;;;;;;;;;6.72;100.00;99637.19;6275682;22;840;-68
2022/12/24 17:09:04;;;;;;;;;;;;;;;6.71;100.00;99635.63;6275590;22;1884;-68
2022/12/24 17:11:31;;;;;;;;;;;;;;;6.70;100.00;99632.09;6275666;22;826;-67
2022/12/24 17:13:57;;;;;;;;;;;;;;;6.68;100.00;99636.41;6276089;22;959;-66
2022/12/24 17:16:24;;;;;;;;;;;;;;;6.62;100.00;99641.44;6275660;22;810;-64
2022/12/24 17:18:51;;;;;;;;;;;;;;;6.59;100.00;99641.41;6275445;22;838;-64
2022/12/24 17:21:18;;;;;;;;;;;;;;;6.55;100.00;99638.66;6275620;22;807;-65
2022/12/24 17:23:45;;;;;;;;;;;;;;;6.49;100.00;99638.19;6275667;22;798;-66
2022/12/24 17:26:12;;;;;;;;;;;;;;;6.42;100.00;99635.41;6275150;22;1369;-65
2022/12/24 17:28:40;;;;;;;;;;;;;;;6.36;100.00;99642.41;6275630;22;806;-64
2022/12/24 17:31:10;;;;;;;;;;;;;;;6.30;100.00;99646.66;6275446;22;1888;-66
2022/12/24 17:33:36;;;;;;;;;;;;;;;6.27;100.00;99644.63;6275410;22;806;-66
2022/12/24 17:36:04;;;;;;;;;;;;;;;6.24;100.00;99640.69;6275468;22;826;-66
2022/12/24 17:38:31;;;;;;;;;;;;;;;6.24;100.00;99648.16;6275404;22;810;-67
2022/12/24 17:41:06;;;;;;;;;;;;;;;6.26;100.00;99648.56;6275428;22;811;-67
2022/12/24 17:43:34;;;;;;;;;;;;;;;6.30;100.00;99649.41;6275365;22;803;-67
2022/12/24 17:46:04;;;;;;;;;;;;;;;6.33;100.00;99649.41;6273869;22;830;-67
2022/12/24 17:48:31;;;;;;;;;;;;;;;6.37;100.00;99638.47;6275159;22;818;-68
